sensor_id;sensor_type;location;lat;lon;timestamp;temperature;humidity
43520;DHT22;46848;51.980;5.918;2023-02-28T00:00:32;4.70;65.70
43520;DHT22;46848;51.980;5.918;2023-02-28T00:02:58;4.70;65.10
43520;DHT22;46848;51.980;5.918;2023-02-28T00:05:25;4.70;65.10
43520;DHT22;46848;51.980;5.918;2023-02-28T00:07:51;4.70;65.00
43520;DHT22;46848;51.980;5.918;2023-02-28T00:10:23;4.70;65.00
43520;DHT22;46848;51.980;5.918;2023-02-28T00:12:50;4.80;65.00
43520;DHT22;46848;51.980;5.918;2023-02-28T00:15:16;4.80;65.00
43520;DHT22;46848;51.980;5.918;2023-02-28T00:17:41;4.80;65.00
43520;DHT22;46848;51.980;5.918;2023-02-28T00:20:08;4.70;65.00
43520;DHT22;46848;51.980;5.918;2023-02-28T00:22:36;4.80;65.10
43520;DHT22;46848;51.980;5.918;2023-02-28T00:25:03;4.80;65.00
43520;DHT22;46848;51.980;5.918;2023-02-28T00:27:30;4.80;65.00
43520;DHT22;46848;51.980;5.918;2023-02-28T00:29:55;4.80;64.90
43520;DHT22;46848;51.980;5.918;2023-02-28T00:32:21;4.90;64.90
43520;DHT22;46848;51.980;5.918;2023-02-28T00:34:47;4.90;64.90
43520;DHT22;46848;51.980;5.918;2023-02-28T00:37:12;4.90;64.90
43520;DHT22;46848;51.980;5.918;2023-02-28T00:39:39;4.90;64.80
43520;DHT22;46848;51.980;5.918;2023-02-28T00:42:06;4.90;65.00
43520;DHT22;46848;51.980;5.918;2023-02-28T00:44:32;4.90;65.00
43520;DHT22;46848;51.980;5.918;2023-02-28T00:46:59;4.80;65.10
43520;DHT22;46848;51.980;5.918;2023-02-28T00:49:28;4.80;65.10
43520;DHT22;46848;51.980;5.918;2023-02-28T00:51:55;4.80;65.10
43520;DHT22;46848;51.980;5.918;2023-02-28T00:54:21;4.80;65.00
43520;DHT22;46848;51.980;5.918;2023-02-28T00:56:48;4.90;65.10
43520;DHT22;46848;51.980;5.918;2023-02-28T00:59:14;4.90;65.10
43520;DHT22;46848;51.980;5.918;2023-02-28T01:01:41;4.90;65.10
43520;DHT22;46848;51.980;5.918;2023-02-28T01:04:06;4.90;65.00
43520;DHT22;46848;51.980;5.918;2023-02-28T01:06:32;4.90;65.60
43520;DHT22;46848;51.980;5.918;2023-02-28T01:08:58;5.00;65.00
43520;DHT22;46848;51.980;5.918;2023-02-28T01:11:24;4.90;64.90
43520;DHT22;46848;51.980;5.918;2023-02-28T01:13:50;4.90;65.00
43520;DHT22;46848;51.980;5.918;2023-02-28T01:16:16;5.00;64.90
43520;DHT22;46848;51.980;5.918;2023-02-28T01:18:42;5.00;65.00
43520;DHT22;46848;51.980;5.918;2023-02-28T01:21:11;5.00;65.00
43520;DHT22;46848;51.980;5.918;2023-02-28T01:23:37;4.90;65.00
43520;DHT22;46848;51.980;5.918;2023-02-28T01:26:08;5.00;65.00
43520;DHT22;46848;51.980;5.918;2023-02-28T01:28:33;5.00;65.00
43520;DHT22;46848;51.980;5.918;2023-02-28T01:30:59;5.00;64.90
43520;DHT22;46848;51.980;5.918;2023-02-28T01:33:25;5.10;65.00
43520;DHT22;46848;51.980;5.918;2023-02-28T01:36:08;5.10;65.00
43520;DHT22;46848;51.980;5.918;2023-02-28T01:38:34;5.10;64.90
43520;DHT22;46848;51.980;5.918;2023-02-28T01:41:00;5.10;65.10
43520;DHT22;46848;51.980;5.918;2023-02-28T01:46:13;5.10;65.00
43520;DHT22;46848;51.980;5.918;2023-02-28T01:51:17;5.20;65.00
43520;DHT22;46848;51.980;5.918;2023-02-28T01:53:49;5.10;65.00
43520;DHT22;46848;51.980;5.918;2023-02-28T01:56:20;5.10;65.10
43520;DHT22;46848;51.980;5.918;2023-02-28T01:58:49;5.10;65.30
43520;DHT22;46848;51.980;5.918;2023-02-28T02:01:16;5.00;65.40
43520;DHT22;46848;51.980;5.918;2023-02-28T02:03:51;5.10;65.40
43520;DHT22;46848;51.980;5.918;2023-02-28T02:06:24;5.10;65.50
43520;DHT22;46848;51.980;5.918;2023-02-28T02:08:50;5.00;65.50
43520;DHT22;46848;51.980;5.918;2023-02-28T02:11:19;5.00;65.70
43520;DHT22;46848;51.980;5.918;2023-02-28T02:14:10;5.00;65.80
43520;DHT22;46848;51.980;5.918;2023-02-28T02:17:10;5.00;65.70
43520;DHT22;46848;51.980;5.918;2023-02-28T02:22:43;5.00;65.80
43520;DHT22;46848;51.980;5.918;2023-02-28T02:25:19;5.00;65.80
43520;DHT22;46848;51.980;5.918;2023-02-28T02:46:53;5.00;65.60
43520;DHT22;46848;51.980;5.918;2023-02-28T02:49:24;5.00;65.50
43520;DHT22;46848;51.980;5.918;2023-02-28T02:51:51;4.90;65.30
43520;DHT22;46848;51.980;5.918;2023-02-28T02:54:25;5.00;65.30
43520;DHT22;46848;51.980;5.918;2023-02-28T02:56:59;5.00;65.00
43520;DHT22;46848;51.980;5.918;2023-02-28T02:59:28;4.90;64.90
43520;DHT22;46848;51.980;5.918;2023-02-28T03:02:03;5.00;64.90
43520;DHT22;46848;51.980;5.918;2023-02-28T03:04:33;5.00;64.80
43520;DHT22;46848;51.980;5.918;2023-02-28T03:07:01;5.00;64.50
43520;DHT22;46848;51.980;5.918;2023-02-28T03:09:27;5.00;64.70
43520;DHT22;46848;51.980;5.918;2023-02-28T03:11:55;4.90;64.60
43520;DHT22;46848;51.980;5.918;2023-02-28T03:22:20;5.00;64.50
43520;DHT22;46848;51.980;5.918;2023-02-28T03:27:27;4.90;64.40
43520;DHT22;46848;51.980;5.918;2023-02-28T03:32:53;4.90;64.50
43520;DHT22;46848;51.980;5.918;2023-02-28T03:35:26;5.00;64.40
43520;DHT22;46848;51.980;5.918;2023-02-28T03:38:00;5.00;63.90
43520;DHT22;46848;51.980;5.918;2023-02-28T03:40:31;4.90;63.80
43520;DHT22;46848;51.980;5.918;2023-02-28T03:43:06;4.90;64.00
43520;DHT22;46848;51.980;5.918;2023-02-28T03:45:36;5.00;64.20
43520;DHT22;46848;51.980;5.918;2023-02-28T03:50:44;5.00;64.00
43520;DHT22;46848;51.980;5.918;2023-02-28T03:53:34;5.00;63.70
43520;DHT22;46848;51.980;5.918;2023-02-28T03:56:17;5.00;63.60
43520;DHT22;46848;51.980;5.918;2023-02-28T03:59:09;5.00;63.60
43520;DHT22;46848;51.980;5.918;2023-02-28T04:01:41;5.00;63.30
43520;DHT22;46848;51.980;5.918;2023-02-28T04:04:11;5.00;63.20
43520;DHT22;46848;51.980;5.918;2023-02-28T04:06:38;5.10;63.00
43520;DHT22;46848;51.980;5.918;2023-02-28T04:09:06;5.10;63.20
43520;DHT22;46848;51.980;5.918;2023-02-28T04:11:33;5.10;63.10
43520;DHT22;46848;51.980;5.918;2023-02-28T04:14:00;5.10;62.70
43520;DHT22;46848;51.980;5.918;2023-02-28T04:16:26;5.10;62.70
43520;DHT22;46848;51.980;5.918;2023-02-28T04:18:52;5.10;62.50
43520;DHT22;46848;51.980;5.918;2023-02-28T04:21:17;5.10;62.40
43520;DHT22;46848;51.980;5.918;2023-02-28T04:23:46;5.10;61.90
43520;DHT22;46848;51.980;5.918;2023-02-28T04:26:12;5.10;61.90
43520;DHT22;46848;51.980;5.918;2023-02-28T04:28:38;5.10;61.30
43520;DHT22;46848;51.980;5.918;2023-02-28T04:31:04;5.10;61.40
43520;DHT22;46848;51.980;5.918;2023-02-28T04:33:31;5.10;61.70
43520;DHT22;46848;51.980;5.918;2023-02-28T04:36:05;5.20;61.50
43520;DHT22;46848;51.980;5.918;2023-02-28T04:38:33;5.10;61.10
43520;DHT22;46848;51.980;5.918;2023-02-28T04:40:59;5.20;60.60
43520;DHT22;46848;51.980;5.918;2023-02-28T04:43:27;5.20;60.90
43520;DHT22;46848;51.980;5.918;2023-02-28T04:45:53;5.10;60.50
43520;DHT22;46848;51.980;5.918;2023-02-28T04:48:25;5.10;60.50
43520;DHT22;46848;51.980;5.918;2023-02-28T04:50:52;5.10;60.60
43520;DHT22;46848;51.980;5.918;2023-02-28T04:53:18;5.20;61.00
43520;DHT22;46848;51.980;5.918;2023-02-28T04:55:44;5.20;61.10
43520;DHT22;46848;51.980;5.918;2023-02-28T04:58:10;5.30;61.10
43520;DHT22;46848;51.980;5.918;2023-02-28T05:00:36;5.30;61.10
43520;DHT22;46848;51.980;5.918;2023-02-28T05:03:02;5.30;61.20
43520;DHT22;46848;51.980;5.918;2023-02-28T05:05:27;5.30;61.20
43520;DHT22;46848;51.980;5.918;2023-02-28T05:07:53;5.20;61.10
43520;DHT22;46848;51.980;5.918;2023-02-28T05:10:21;5.20;61.10
43520;DHT22;46848;51.980;5.918;2023-02-28T05:12:46;5.20;61.40
43520;DHT22;46848;51.980;5.918;2023-02-28T05:15:14;5.20;61.20
43520;DHT22;46848;51.980;5.918;2023-02-28T05:17:40;5.10;61.20
43520;DHT22;46848;51.980;5.918;2023-02-28T05:20:07;5.10;61.30
43520;DHT22;46848;51.980;5.918;2023-02-28T05:22:36;5.00;61.20
43520;DHT22;46848;51.980;5.918;2023-02-28T05:25:03;4.90;61.70
43520;DHT22;46848;51.980;5.918;2023-02-28T05:27:28;5.00;61.90
43520;DHT22;46848;51.980;5.918;2023-02-28T05:29:54;5.00;61.80
43520;DHT22;46848;51.980;5.918;2023-02-28T05:32:20;5.00;61.50
43520;DHT22;46848;51.980;5.918;2023-02-28T05:34:45;4.90;61.80
43520;DHT22;46848;51.980;5.918;2023-02-28T05:37:12;4.90;61.90
43520;DHT22;46848;51.980;5.918;2023-02-28T05:39:38;4.90;61.80
43520;DHT22;46848;51.980;5.918;2023-02-28T05:42:04;4.90;62.00
43520;DHT22;46848;51.980;5.918;2023-02-28T05:44:30;4.80;61.90
43520;DHT22;46848;51.980;5.918;2023-02-28T05:46:56;4.80;62.20
43520;DHT22;46848;51.980;5.918;2023-02-28T05:49:21;4.80;62.30
43520;DHT22;46848;51.980;5.918;2023-02-28T05:51:47;4.80;62.30
43520;DHT22;46848;51.980;5.918;2023-02-28T05:54:13;4.80;62.10
43520;DHT22;46848;51.980;5.918;2023-02-28T05:56:38;4.80;62.30
43520;DHT22;46848;51.980;5.918;2023-02-28T05:59:06;4.80;62.30
43520;DHT22;46848;51.980;5.918;2023-02-28T06:01:38;4.80;62.20
43520;DHT22;46848;51.980;5.918;2023-02-28T06:04:04;4.80;62.10
43520;DHT22;46848;51.980;5.918;2023-02-28T06:06:30;4.70;62.10
43520;DHT22;46848;51.980;5.918;2023-02-28T06:08:56;4.70;62.20
43520;DHT22;46848;51.980;5.918;2023-02-28T06:11:22;4.70;62.50
43520;DHT22;46848;51.980;5.918;2023-02-28T06:13:54;4.70;62.50
43520;DHT22;46848;51.980;5.918;2023-02-28T06:16:21;4.80;62.50
43520;DHT22;46848;51.980;5.918;2023-02-28T06:18:47;4.80;62.30
43520;DHT22;46848;51.980;5.918;2023-02-28T06:21:13;4.80;62.40
43520;DHT22;46848;51.980;5.918;2023-02-28T06:23:38;4.80;62.40
43520;DHT22;46848;51.980;5.918;2023-02-28T06:26:04;4.80;62.60
43520;DHT22;46848;51.980;5.918;2023-02-28T06:28:30;4.80;62.60
43520;DHT22;46848;51.980;5.918;2023-02-28T06:30:56;4.90;62.60
43520;DHT22;46848;51.980;5.918;2023-02-28T06:33:22;5.00;62.10
43520;DHT22;46848;51.980;5.918;2023-02-28T06:35:50;5.00;62.20
43520;DHT22;46848;51.980;5.918;2023-02-28T06:38:16;5.00;62.20
43520;DHT22;46848;51.980;5.918;2023-02-28T06:40:43;5.10;62.50
43520;DHT22;46848;51.980;5.918;2023-02-28T06:43:09;5.20;62.60
43520;DHT22;46848;51.980;5.918;2023-02-28T06:45:42;5.30;62.60
43520;DHT22;46848;51.980;5.918;2023-02-28T06:48:07;5.40;62.40
43520;DHT22;46848;51.980;5.918;2023-02-28T06:50:33;5.40;62.20
43520;DHT22;46848;51.980;5.918;2023-02-28T06:52:59;5.40;62.00
43520;DHT22;46848;51.980;5.918;2023-02-28T06:55:25;5.40;61.40
43520;DHT22;46848;51.980;5.918;2023-02-28T06:57:50;5.50;61.40
43520;DHT22;46848;51.980;5.918;2023-02-28T07:00:16;5.50;61.40
43520;DHT22;46848;51.980;5.918;2023-02-28T07:02:42;5.50;61.40
43520;DHT22;46848;51.980;5.918;2023-02-28T07:05:08;5.60;61.40
43520;DHT22;46848;51.980;5.918;2023-02-28T07:07:34;5.70;61.30
43520;DHT22;46848;51.980;5.918;2023-02-28T07:10:01;5.60;60.20
43520;DHT22;46848;51.980;5.918;2023-02-28T07:12:27;5.60;59.80
43520;DHT22;46848;51.980;5.918;2023-02-28T07:14:53;5.60;59.70
43520;DHT22;46848;51.980;5.918;2023-02-28T07:17:19;5.60;60.30
43520;DHT22;46848;51.980;5.918;2023-02-28T07:19:45;5.70;60.30
43520;DHT22;46848;51.980;5.918;2023-02-28T07:22:11;5.70;58.50
43520;DHT22;46848;51.980;5.918;2023-02-28T07:24:36;5.70;58.80
43520;DHT22;46848;51.980;5.918;2023-02-28T07:27:03;5.70;59.00
43520;DHT22;46848;51.980;5.918;2023-02-28T07:29:29;5.70;58.00
43520;DHT22;46848;51.980;5.918;2023-02-28T07:31:55;5.70;58.20
43520;DHT22;46848;51.980;5.918;2023-02-28T07:34:22;5.60;58.60
43520;DHT22;46848;51.980;5.918;2023-02-28T07:36:48;5.70;58.00
43520;DHT22;46848;51.980;5.918;2023-02-28T07:39:13;5.70;57.80
43520;DHT22;46848;51.980;5.918;2023-02-28T07:41:39;5.70;58.30
43520;DHT22;46848;51.980;5.918;2023-02-28T07:44:12;5.70;58.20
43520;DHT22;46848;51.980;5.918;2023-02-28T07:46:38;5.80;58.40
43520;DHT22;46848;51.980;5.918;2023-02-28T07:49:05;5.80;58.20
43520;DHT22;46848;51.980;5.918;2023-02-28T07:51:31;6.00;58.10
43520;DHT22;46848;51.980;5.918;2023-02-28T07:53:57;6.20;56.80
43520;DHT22;46848;51.980;5.918;2023-02-28T07:56:22;6.60;57.20
43520;DHT22;46848;51.980;5.918;2023-02-28T07:58:48;7.20;56.30
43520;DHT22;46848;51.980;5.918;2023-02-28T08:01:14;7.70;54.40
43520;DHT22;46848;51.980;5.918;2023-02-28T08:03:40;8.10;52.70
43520;DHT22;46848;51.980;5.918;2023-02-28T08:06:07;8.50;53.30
43520;DHT22;46848;51.980;5.918;2023-02-28T08:08:33;8.90;51.00
43520;DHT22;46848;51.980;5.918;2023-02-28T08:11:00;9.40;48.30
43520;DHT22;46848;51.980;5.918;2023-02-28T08:13:27;9.70;49.30
43520;DHT22;46848;51.980;5.918;2023-02-28T08:15:54;10.00;48.50
43520;DHT22;46848;51.980;5.918;2023-02-28T08:18:20;10.30;48.70
43520;DHT22;46848;51.980;5.918;2023-02-28T08:20:46;10.70;49.40
43520;DHT22;46848;51.980;5.918;2023-02-28T08:23:12;11.10;48.90
43520;DHT22;46848;51.980;5.918;2023-02-28T08:25:37;11.40;44.10
43520;DHT22;46848;51.980;5.918;2023-02-28T08:28:03;11.50;46.80
43520;DHT22;46848;51.980;5.918;2023-02-28T08:30:29;11.70;44.40
43520;DHT22;46848;51.980;5.918;2023-02-28T08:32:54;11.90;45.70
43520;DHT22;46848;51.980;5.918;2023-02-28T08:35:21;12.00;46.60
43520;DHT22;46848;51.980;5.918;2023-02-28T08:37:50;12.20;44.90
43520;DHT22;46848;51.980;5.918;2023-02-28T08:40:16;12.40;47.40
43520;DHT22;46848;51.980;5.918;2023-02-28T08:42:47;12.60;46.10
43520;DHT22;46848;51.980;5.918;2023-02-28T08:45:14;12.70;45.50
43520;DHT22;46848;51.980;5.918;2023-02-28T08:47:40;13.00;45.60
43520;DHT22;46848;51.980;5.918;2023-02-28T08:50:07;13.10;47.60
43520;DHT22;46848;51.980;5.918;2023-02-28T08:52:33;13.20;46.50
43520;DHT22;46848;51.980;5.918;2023-02-28T08:54:58;13.20;44.20
43520;DHT22;46848;51.980;5.918;2023-02-28T08:57:24;13.00;46.70
43520;DHT22;46848;51.980;5.918;2023-02-28T08:59:52;12.90;41.70
43520;DHT22;46848;51.980;5.918;2023-02-28T09:02:18;12.90;49.10
43520;DHT22;46848;51.980;5.918;2023-02-28T09:04:44;13.00;44.00
43520;DHT22;46848;51.980;5.918;2023-02-28T09:07:12;13.00;49.80
43520;DHT22;46848;51.980;5.918;2023-02-28T09:09:38;13.20;48.50
43520;DHT22;46848;51.980;5.918;2023-02-28T09:12:22;13.40;47.30
43520;DHT22;46848;51.980;5.918;2023-02-28T09:14:48;13.70;52.90
43520;DHT22;46848;51.980;5.918;2023-02-28T09:17:13;14.00;49.70
43520;DHT22;46848;51.980;5.918;2023-02-28T09:19:39;14.40;49.80
43520;DHT22;46848;51.980;5.918;2023-02-28T09:22:05;14.40;48.80
43520;DHT22;46848;51.980;5.918;2023-02-28T09:24:30;14.40;49.70
43520;DHT22;46848;51.980;5.918;2023-02-28T09:26:57;14.40;49.20
43520;DHT22;46848;51.980;5.918;2023-02-28T09:29:22;14.50;53.50
43520;DHT22;46848;51.980;5.918;2023-02-28T09:31:48;14.70;52.20
43520;DHT22;46848;51.980;5.918;2023-02-28T09:34:14;14.80;47.60
43520;DHT22;46848;51.980;5.918;2023-02-28T09:36:41;14.70;41.70
43520;DHT22;46848;51.980;5.918;2023-02-28T09:39:06;14.50;46.30
43520;DHT22;46848;51.980;5.918;2023-02-28T09:41:39;14.40;46.60
43520;DHT22;46848;51.980;5.918;2023-02-28T09:44:16;14.20;45.70
43520;DHT22;46848;51.980;5.918;2023-02-28T09:46:51;14.20;47.00
43520;DHT22;46848;51.980;5.918;2023-02-28T09:49:24;14.10;44.60
43520;DHT22;46848;51.980;5.918;2023-02-28T09:52:04;13.90;45.10
43520;DHT22;46848;51.980;5.918;2023-02-28T09:54:32;13.80;48.50
43520;DHT22;46848;51.980;5.918;2023-02-28T16:45:02;9.20;39.70
43520;DHT22;46848;51.980;5.918;2023-02-28T16:47:28;9.10;39.40
43520;DHT22;46848;51.980;5.918;2023-02-28T16:49:53;9.00;39.20
43520;DHT22;46848;51.980;5.918;2023-02-28T16:52:21;9.00;39.50
43520;DHT22;46848;51.980;5.918;2023-02-28T16:54:48;8.90;39.60
43520;DHT22;46848;51.980;5.918;2023-02-28T16:57:20;8.90;39.60
43520;DHT22;46848;51.980;5.918;2023-02-28T16:59:49;8.80;39.70
43520;DHT22;46848;51.980;5.918;2023-02-28T17:02:17;8.70;39.80
43520;DHT22;46848;51.980;5.918;2023-02-28T17:04:47;8.70;40.40
43520;DHT22;46848;51.980;5.918;2023-02-28T17:07:15;8.70;40.40
43520;DHT22;46848;51.980;5.918;2023-02-28T17:09:42;8.60;40.70
43520;DHT22;46848;51.980;5.918;2023-02-28T17:12:08;8.50;40.80
43520;DHT22;46848;51.980;5.918;2023-02-28T17:14:34;8.50;40.90
43520;DHT22;46848;51.980;5.918;2023-02-28T17:17:01;8.50;41.40
43520;DHT22;46848;51.980;5.918;2023-02-28T17:19:27;8.50;41.10
43520;DHT22;46848;51.980;5.918;2023-02-28T17:21:53;8.50;41.10
43520;DHT22;46848;51.980;5.918;2023-02-28T17:24:19;8.50;41.60
43520;DHT22;46848;51.980;5.918;2023-02-28T17:26:45;8.50;41.20
43520;DHT22;46848;51.980;5.918;2023-02-28T17:29:34;8.40;41.90
43520;DHT22;46848;51.980;5.918;2023-02-28T17:32:00;8.40;41.60
43520;DHT22;46848;51.980;5.918;2023-02-28T17:34:25;8.30;41.70
43520;DHT22;46848;51.980;5.918;2023-02-28T17:36:51;8.30;41.70
43520;DHT22;46848;51.980;5.918;2023-02-28T17:39:18;8.20;41.60
43520;DHT22;46848;51.980;5.918;2023-02-28T17:41:52;8.20;42.10
43520;DHT22;46848;51.980;5.918;2023-02-28T17:44:19;8.10;41.90
43520;DHT22;46848;51.980;5.918;2023-02-28T17:46:45;8.00;41.90
43520;DHT22;46848;51.980;5.918;2023-02-28T17:49:11;7.90;42.00
43520;DHT22;46848;51.980;5.918;2023-02-28T17:51:38;7.90;42.40
43520;DHT22;46848;51.980;5.918;2023-02-28T17:54:06;7.70;42.40
43520;DHT22;46848;51.980;5.918;2023-02-28T17:56:32;7.80;42.50
43520;DHT22;46848;51.980;5.918;2023-02-28T17:58:57;7.80;42.50
43520;DHT22;46848;51.980;5.918;2023-02-28T18:01:24;7.80;42.80
43520;DHT22;46848;51.980;5.918;2023-02-28T18:03:53;7.70;42.70
43520;DHT22;46848;51.980;5.918;2023-02-28T18:06:23;7.60;43.00
43520;DHT22;46848;51.980;5.918;2023-02-28T18:08:50;7.60;43.30
43520;DHT22;46848;51.980;5.918;2023-02-28T18:11:20;7.60;43.50
43520;DHT22;46848;51.980;5.918;2023-02-28T18:13:51;7.60;43.80
43520;DHT22;46848;51.980;5.918;2023-02-28T18:16:18;7.60;44.10
43520;DHT22;46848;51.980;5.918;2023-02-28T18:18:44;7.60;44.10
43520;DHT22;46848;51.980;5.918;2023-02-28T18:21:12;7.70;43.80
43520;DHT22;46848;51.980;5.918;2023-02-28T18:23:39;7.60;44.30
43520;DHT22;46848;51.980;5.918;2023-02-28T18:26:15;7.60;44.40
43520;DHT22;46848;51.980;5.918;2023-02-28T18:28:41;7.60;44.60
43520;DHT22;46848;51.980;5.918;2023-02-28T18:31:10;7.60;44.70
43520;DHT22;46848;51.980;5.918;2023-02-28T18:33:36;7.50;44.80
43520;DHT22;46848;51.980;5.918;2023-02-28T18:36:02;7.60;45.10
43520;DHT22;46848;51.980;5.918;2023-02-28T18:38:28;7.50;44.80
43520;DHT22;46848;51.980;5.918;2023-02-28T18:41:02;7.50;44.70
43520;DHT22;46848;51.980;5.918;2023-02-28T18:43:30;7.50;45.00
43520;DHT22;46848;51.980;5.918;2023-02-28T18:45:57;7.40;44.80
43520;DHT22;46848;51.980;5.918;2023-02-28T18:48:23;7.40;45.20
43520;DHT22;46848;51.980;5.918;2023-02-28T18:50:49;7.30;45.50
43520;DHT22;46848;51.980;5.918;2023-02-28T18:53:15;7.30;45.30
43520;DHT22;46848;51.980;5.918;2023-02-28T18:55:41;7.30;45.60
43520;DHT22;46848;51.980;5.918;2023-02-28T18:58:07;7.30;45.70
43520;DHT22;46848;51.980;5.918;2023-02-28T19:00:32;7.30;45.90
43520;DHT22;46848;51.980;5.918;2023-02-28T19:02:58;7.20;46.00
43520;DHT22;46848;51.980;5.918;2023-02-28T19:05:24;7.10;46.10
43520;DHT22;46848;51.980;5.918;2023-02-28T19:07:50;7.10;45.90
43520;DHT22;46848;51.980;5.918;2023-02-28T19:10:16;7.00;46.10
43520;DHT22;46848;51.980;5.918;2023-02-28T19:12:42;6.90;46.10
43520;DHT22;46848;51.980;5.918;2023-02-28T19:15:08;6.90;46.40
43520;DHT22;46848;51.980;5.918;2023-02-28T19:17:34;6.80;46.30
43520;DHT22;46848;51.980;5.918;2023-02-28T19:20:02;6.70;46.40
43520;DHT22;46848;51.980;5.918;2023-02-28T19:22:28;6.70;46.70
43520;DHT22;46848;51.980;5.918;2023-02-28T19:24:54;6.70;46.40
43520;DHT22;46848;51.980;5.918;2023-02-28T19:27:19;6.70;46.80
43520;DHT22;46848;51.980;5.918;2023-02-28T19:29:49;6.70;46.70
43520;DHT22;46848;51.980;5.918;2023-02-28T19:32:21;6.60;46.70
43520;DHT22;46848;51.980;5.918;2023-02-28T19:34:47;6.60;46.80
43520;DHT22;46848;51.980;5.918;2023-02-28T19:37:13;6.60;47.00
43520;DHT22;46848;51.980;5.918;2023-02-28T19:39:38;6.60;47.00
43520;DHT22;46848;51.980;5.918;2023-02-28T19:42:13;6.60;46.90
43520;DHT22;46848;51.980;5.918;2023-02-28T19:44:39;6.50;47.30
43520;DHT22;46848;51.980;5.918;2023-02-28T19:47:07;6.50;47.30
43520;DHT22;46848;51.980;5.918;2023-02-28T19:49:33;6.50;47.30
43520;DHT22;46848;51.980;5.918;2023-02-28T19:52:00;6.50;47.20
43520;DHT22;46848;51.980;5.918;2023-02-28T19:54:26;6.60;47.30
43520;DHT22;46848;51.980;5.918;2023-02-28T19:56:52;6.40;47.50
43520;DHT22;46848;51.980;5.918;2023-02-28T19:59:23;6.50;47.70
43520;DHT22;46848;51.980;5.918;2023-02-28T20:01:49;6.50;47.80
43520;DHT22;46848;51.980;5.918;2023-02-28T20:04:15;6.40;47.90
43520;DHT22;46848;51.980;5.918;2023-02-28T20:06:40;6.50;47.90
43520;DHT22;46848;51.980;5.918;2023-02-28T20:09:06;6.40;48.00
43520;DHT22;46848;51.980;5.918;2023-02-28T20:11:36;6.50;48.10
43520;DHT22;46848;51.980;5.918;2023-02-28T20:14:02;6.50;48.20
43520;DHT22;46848;51.980;5.918;2023-02-28T20:16:30;6.50;48.30
43520;DHT22;46848;51.980;5.918;2023-02-28T20:18:56;6.40;48.30
43520;DHT22;46848;51.980;5.918;2023-02-28T20:21:21;6.40;48.20
43520;DHT22;46848;51.980;5.918;2023-02-28T20:23:47;6.40;48.50
43520;DHT22;46848;51.980;5.918;2023-02-28T20:26:14;6.30;48.60
43520;DHT22;46848;51.980;5.918;2023-02-28T20:28:40;6.20;48.80
43520;DHT22;46848;51.980;5.918;2023-02-28T20:31:21;6.10;48.70
43520;DHT22;46848;51.980;5.918;2023-02-28T20:33:49;6.10;48.80
43520;DHT22;46848;51.980;5.918;2023-02-28T20:36:16;6.20;49.00
43520;DHT22;46848;51.980;5.918;2023-02-28T20:38:44;6.10;49.00
43520;DHT22;46848;51.980;5.918;2023-02-28T20:41:09;6.10;49.00
43520;DHT22;46848;51.980;5.918;2023-02-28T20:43:35;6.00;49.10
43520;DHT22;46848;51.980;5.918;2023-02-28T20:46:01;6.00;49.10
43520;DHT22;46848;51.980;5.918;2023-02-28T20:48:28;6.00;49.20
43520;DHT22;46848;51.980;5.918;2023-02-28T20:50:55;6.00;49.30
43520;DHT22;46848;51.980;5.918;2023-02-28T20:53:22;6.00;49.30
43520;DHT22;46848;51.980;5.918;2023-02-28T20:56:00;5.90;49.30
43520;DHT22;46848;51.980;5.918;2023-02-28T20:58:28;5.80;49.30
43520;DHT22;46848;51.980;5.918;2023-02-28T21:01:02;5.80;49.60
43520;DHT22;46848;51.980;5.918;2023-02-28T21:03:28;5.80;50.30
43520;DHT22;46848;51.980;5.918;2023-02-28T21:05:59;5.80;49.80
43520;DHT22;46848;51.980;5.918;2023-02-28T21:08:25;5.80;49.90
43520;DHT22;46848;51.980;5.918;2023-02-28T21:10:51;5.70;49.80
43520;DHT22;46848;51.980;5.918;2023-02-28T21:13:16;5.70;50.40
43520;DHT22;46848;51.980;5.918;2023-02-28T21:15:42;5.70;50.20
43520;DHT22;46848;51.980;5.918;2023-02-28T21:18:08;5.70;50.30
43520;DHT22;46848;51.980;5.918;2023-02-28T21:20:34;5.70;50.40
43520;DHT22;46848;51.980;5.918;2023-02-28T21:23:00;5.70;50.50
43520;DHT22;46848;51.980;5.918;2023-02-28T21:25:26;5.70;50.50
43520;DHT22;46848;51.980;5.918;2023-02-28T21:27:52;5.60;50.60
43520;DHT22;46848;51.980;5.918;2023-02-28T21:30:21;5.60;50.70
43520;DHT22;46848;51.980;5.918;2023-02-28T21:32:47;5.60;50.70
43520;DHT22;46848;51.980;5.918;2023-02-28T21:35:13;5.50;50.90
43520;DHT22;46848;51.980;5.918;2023-02-28T21:37:39;5.50;50.90
43520;DHT22;46848;51.980;5.918;2023-02-28T21:40:06;5.50;51.00
43520;DHT22;46848;51.980;5.918;2023-02-28T21:42:32;5.50;51.10
43520;DHT22;46848;51.980;5.918;2023-02-28T21:44:58;5.40;51.10
43520;DHT22;46848;51.980;5.918;2023-02-28T21:47:27;5.40;51.30
43520;DHT22;46848;51.980;5.918;2023-02-28T21:49:54;5.40;51.30
43520;DHT22;46848;51.980;5.918;2023-02-28T21:52:20;5.40;51.40
43520;DHT22;46848;51.980;5.918;2023-02-28T21:54:47;5.40;51.50
43520;DHT22;46848;51.980;5.918;2023-02-28T21:57:13;5.40;51.70
43520;DHT22;46848;51.980;5.918;2023-02-28T21:59:43;5.40;51.70
43520;DHT22;46848;51.980;5.918;2023-02-28T22:02:10;5.30;51.70
43520;DHT22;46848;51.980;5.918;2023-02-28T22:04:36;5.30;51.90
43520;DHT22;46848;51.980;5.918;2023-02-28T22:07:03;5.30;52.50
43520;DHT22;46848;51.980;5.918;2023-02-28T22:09:29;5.20;52.00
43520;DHT22;46848;51.980;5.918;2023-02-28T22:11:55;5.20;52.30
43520;DHT22;46848;51.980;5.918;2023-02-28T22:14:22;5.20;52.30
43520;DHT22;46848;51.980;5.918;2023-02-28T22:16:47;5.20;52.30
43520;DHT22;46848;51.980;5.918;2023-02-28T22:19:13;5.20;52.10
43520;DHT22;46848;51.980;5.918;2023-02-28T22:21:39;5.10;52.00
43520;DHT22;46848;51.980;5.918;2023-02-28T22:24:07;5.10;52.10
43520;DHT22;46848;51.980;5.918;2023-02-28T22:26:33;5.00;52.10
43520;DHT22;46848;51.980;5.918;2023-02-28T22:29:01;5.00;52.20
43520;DHT22;46848;51.980;5.918;2023-02-28T22:31:32;5.10;52.30
43520;DHT22;46848;51.980;5.918;2023-02-28T22:34:00;5.10;52.40
43520;DHT22;46848;51.980;5.918;2023-02-28T22:36:28;5.10;52.40
43520;DHT22;46848;51.980;5.918;2023-02-28T22:38:54;5.10;52.50
43520;DHT22;46848;51.980;5.918;2023-02-28T22:41:21;5.00;52.60
43520;DHT22;46848;51.980;5.918;2023-02-28T22:43:51;4.90;52.60
43520;DHT22;46848;51.980;5.918;2023-02-28T22:46:18;4.90;52.80
43520;DHT22;46848;51.980;5.918;2023-02-28T22:48:44;4.90;52.80
43520;DHT22;46848;51.980;5.918;2023-02-28T22:51:12;4.90;52.80
43520;DHT22;46848;51.980;5.918;2023-02-28T22:53:39;4.90;52.90
43520;DHT22;46848;51.980;5.918;2023-02-28T22:56:07;4.90;53.00
43520;DHT22;46848;51.980;5.918;2023-02-28T22:58:34;5.00;52.90
43520;DHT22;46848;51.980;5.918;2023-02-28T23:01:06;4.90;52.80
43520;DHT22;46848;51.980;5.918;2023-02-28T23:03:32;4.90;52.90
43520;DHT22;46848;51.980;5.918;2023-02-28T23:05:58;4.80;53.00
43520;DHT22;46848;51.980;5.918;2023-02-28T23:08:24;4.80;52.90
43520;DHT22;46848;51.980;5.918;2023-02-28T23:10:50;4.80;53.10
43520;DHT22;46848;51.980;5.918;2023-02-28T23:13:17;4.80;53.30
43520;DHT22;46848;51.980;5.918;2023-02-28T23:15:43;4.70;53.30
43520;DHT22;46848;51.980;5.918;2023-02-28T23:18:09;4.70;53.40